メインページ
METAR-TAF:

METAR-TAF

空港 :

ラスベガス, ネバダ州, アメリカ合衆国

マッカラン国際空港

緯度: 36-04-44N, 経度: 115-09-19W, 海抜: 663m

現時点の気象観測

当レポートは14分前の10:56(UTC)に作成
の風 8kt
気温 23°C
湿度 29%
気圧 1008 hPa
視程: 16.1km
晴天

METAR: KLAS 201056Z 19008KT 10SM CLR 23/04 A2976 RMK AO2 SLP053 T02330044 $

時間: 04:10 (11:10 UTC)

予報

当レポートは2時間5分前の09:05(UTC)に作成
予報は20日の 09時(UTC)から 21日の 12時(UTC)まで有効
の風 10kt
視程: 10km
晴天
20日の 1700時(UTC)から
東/北東の風 6kt
視程: 10km
晴天
20日の 1900時(UTC)から
東/南東の風 7kt
視程: 10km
晴天
20日の 2100時(UTC)から
南/南西の風 14kt、最大22ktの突風を伴う
視程: 10km
晴天

TAF: KLAS 200905Z 2009/2112 19010KT P6SM SKC FM201700 07006KT P6SM SKC FM201900 12007KT P6SM SKC FM202100 20014G22KT P6SM SKC

4,000以上の空港の気象観測と天気予報(METAR報とTAF報)

利用可能な観測所は地図上に黄色い丸と赤い丸で示す。

丸の上にカーソルを重ねると観測所名を参照できる。

次にクリックすると気象観測と天気予報を参照できる。

マップの切り替え:黒色「×」印の緑ボタンをクリックして拡大、「-」印の緑ボタンをクリックして縮小、緑色の三角印をクリックして隣りの地図に切り替え


METAR-TAF: